Time;durP1;ratioP1;P1;durP2;ratioP2;P2;SDS_P1;SDS_P2;PMS_P1;PMS_P2;Temp;Humidity;BMP_temperature;BMP_pressure;BME280_temperature;BME280_humidity;BME280_pressure;Samples;Min_cycle;Max_cycle;Signal;HPM_P1;HPM_P2
2021/05/10 00:01:42;;;;;;;6.60;2.30;;;21.00;99.90;;;;;;5095197;28;20182;-69
2021/05/10 00:04:08;;;;;;;3.77;1.23;;;21.10;99.90;;;;;;5095228;28;20433;-70
2021/05/10 00:06:33;;;;;;;4.97;1.20;;;21.00;99.90;;;;;;5095084;28;20407;-69
2021/05/10 00:09:01;;;;;;;3.80;1.23;;;21.00;99.90;;;;;;5094752;28;20842;-69
2021/05/10 00:11:27;;;;;;;4.53;1.30;;;21.00;99.90;;;;;;5095011;28;20596;-69
2021/05/10 00:13:54;;;;;;;1.87;1.47;;;21.00;99.90;;;;;;5094626;28;20453;-70
2021/05/10 00:16:19;;;;;;;2.50;1.70;;;20.90;99.90;;;;;;5094937;28;20172;-69
2021/05/10 00:18:45;;;;;;;1.73;1.37;;;21.00;99.90;;;;;;5094622;28;20471;-70
2021/05/10 00:21:10;;;;;;;3.17;1.30;;;21.00;99.90;;;;;;5094528;28;20625;-70
2021/05/10 00:23:37;;;;;;;3.03;1.10;;;21.00;99.90;;;;;;5094455;28;20197;-69
2021/05/10 00:26:03;;;;;;;1.93;0.90;;;21.00;99.90;;;;;;5094742;28;20611;-69
2021/05/10 00:28:28;;;;;;;3.90;1.30;;;21.00;99.90;;;;;;5094497;28;20522;-69
2021/05/10 00:30:54;;;;;;;2.70;1.20;;;21.10;99.90;;;;;;5094652;28;20652;-69
2021/05/10 00:33:19;;;;;;;1.40;1.10;;;21.10;99.90;;;;;;5094343;28;20266;-70
2021/05/10 00:35:45;;;;;;;8.53;1.83;;;21.20;99.90;;;;;;5094219;28;20197;-69
2021/05/10 00:38:11;;;;;;;5.53;1.70;;;21.20;99.90;;;;;;5094368;28;20739;-70
2021/05/10 00:40:37;;;;;;;1.50;1.10;;;21.20;99.90;;;;;;5094458;28;20178;-70
2021/05/10 00:43:02;;;;;;;1.93;1.07;;;21.20;99.90;;;;;;5094129;28;20265;-70
2021/05/10 00:45:29;;;;;;;4.73;1.40;;;21.30;99.90;;;;;;5094075;28;20630;-69
2021/05/10 00:47:55;;;;;;;4.83;2.00;;;21.40;99.90;;;;;;5093993;28;20194;-70
2021/05/10 00:50:21;;;;;;;4.17;1.40;;;21.40;99.90;;;;;;5094245;28;20428;-69
2021/05/10 00:52:47;;;;;;;2.10;1.50;;;21.40;99.90;;;;;;5094329;28;20799;-69
2021/05/10 00:55:14;;;;;;;3.00;1.50;;;21.40;99.90;;;;;;5093981;28;20505;-70
2021/05/10 00:57:49;;;;;;;3.87;1.17;;;21.40;99.90;;;;;;5093907;28;20412;-70
2021/05/10 01:00:15;;;;;;;1.80;1.50;;;21.40;99.90;;;;;;5094173;28;20859;-70
2021/05/10 01:02:42;;;;;;;3.00;1.37;;;21.30;99.90;;;;;;5093782;28;20409;-69
2021/05/10 01:05:09;;;;;;;4.30;1.80;;;21.30;99.90;;;;;;5093673;28;20502;-68
2021/05/10 01:07:35;;;;;;;2.60;1.50;;;21.30;99.90;;;;;;5093504;28;21010;-70
2021/05/10 01:10:04;;;;;;;4.27;1.40;;;21.30;99.90;;;;;;5093627;28;20742;-68
2021/05/10 01:12:30;;;;;;;6.83;1.47;;;21.30;99.90;;;;;;5093666;28;20426;-68
2021/05/10 01:14:56;;;;;;;2.40;1.50;;;21.20;99.90;;;;;;5093523;28;20481;-68
2021/05/10 01:17:21;;;;;;;5.53;1.80;;;21.20;99.90;;;;;;5093814;28;20175;-69
2021/05/10 01:19:47;;;;;;;2.77;1.70;;;21.20;99.90;;;;;;5093442;28;20215;-69
2021/05/10 01:22:15;;;;;;;5.93;1.80;;;21.20;99.90;;;;;;5093508;28;20175;-69
2021/05/10 01:24:40;;;;;;;2.63;1.47;;;21.10;99.90;;;;;;5093194;28;20668;-69
2021/05/10 01:27:06;;;;;;;1.77;1.20;;;21.00;99.90;;;;;;5092037;28;20497;-69
2021/05/10 01:29:32;;;;;;;5.73;1.57;;;21.00;99.90;;;;;;5093588;28;20525;-69
2021/05/10 01:31:57;;;;;;;3.47;2.03;;;21.10;99.90;;;;;;5093609;28;20166;-69
2021/05/10 01:34:23;;;;;;;2.60;1.30;;;21.00;99.90;;;;;;5093215;28;20436;-69
2021/05/10 01:36:48;;;;;;;3.33;1.40;;;21.00;99.90;;;;;;5093214;28;20530;-69
2021/05/10 01:39:14;;;;;;;2.93;1.30;;;21.00;99.90;;;;;;5093485;28;20257;-69
2021/05/10 01:41:40;;;;;;;1.63;1.40;;;21.10;99.90;;;;;;5093159;28;20168;-68
2021/05/10 01:44:05;;;;;;;1.70;1.37;;;21.10;99.90;;;;;;5093062;28;20190;-69
2021/05/10 01:46:31;;;;;;;2.10;1.50;;;21.00;99.90;;;;;;5093062;28;20165;-69
2021/05/10 01:48:57;;;;;;;8.40;1.63;;;21.10;99.90;;;;;;5093130;28;20166;-69
2021/05/10 01:51:26;;;;;;;3.20;1.10;;;21.20;99.90;;;;;;5093315;28;20170;-69
2021/05/10 01:53:52;;;;;;;3.83;1.30;;;21.10;99.90;;;;;;5092945;28;20188;-69
2021/05/10 01:56:18;;;;;;;3.00;1.27;;;21.10;99.90;;;;;;5093004;28;20928;-69
2021/05/10 01:58:50;;;;;;;1.40;1.00;;;21.00;99.90;;;;;;5093023;28;20406;-68
2021/05/10 02:01:16;;;;;;;3.43;1.43;;;21.10;99.90;;;;;;5093325;28;20619;-69
2021/05/10 02:03:42;;;;;;;3.57;1.20;;;21.00;99.90;;;;;;5091496;28;20490;-69
2021/05/10 02:06:07;;;;;;;2.60;1.07;;;20.90;99.90;;;;;;5091587;28;20945;-69
2021/05/10 02:08:33;;;;;;;3.83;1.43;;;20.90;99.90;;;;;;5092627;28;20208;-68
2021/05/10 02:10:58;;;;;;;7.13;1.60;;;20.90;99.90;;;;;;5092928;28;20285;-69
2021/05/10 02:13:24;;;;;;;2.63;1.20;;;20.80;99.90;;;;;;5092839;28;20168;-69
2021/05/10 02:15:52;;;;;;;3.50;1.50;;;20.80;99.90;;;;;;5092738;28;20555;-69
2021/05/10 02:18:20;;;;;;;3.40;1.70;;;20.90;99.90;;;;;;5092939;28;20826;-69
2021/05/10 02:20:46;;;;;;;2.83;1.43;;;20.80;99.90;;;;;;5092773;28;20496;-69
2021/05/10 02:23:23;;;;;;;2.90;1.20;;;20.90;99.90;;;;;;5095321;28;20442;-69
2021/05/10 02:25:51;;;;;;;2.57;1.30;;;20.80;99.90;;;;;;5096731;28;20428;-69
2021/05/10 02:28:19;;;;;;;5.67;1.70;;;20.80;99.90;;;;;;5096916;28;20453;-69
2021/05/10 02:30:46;;;;;;;3.40;1.33;;;20.80;99.90;;;;;;5096720;28;20765;-69
2021/05/10 02:33:15;;;;;;;2.33;1.57;;;20.80;99.90;;;;;;5096679;28;20490;-69
2021/05/10 02:35:42;;;;;;;2.13;1.50;;;20.80;99.90;;;;;;5096502;28;20502;-69
2021/05/10 02:38:09;;;;;;;2.70;1.20;;;20.80;99.90;;;;;;5096548;28;20416;-69
2021/05/10 02:40:35;;;;;;;1.80;1.30;;;20.80;99.90;;;;;;5096429;28;20456;-69
2021/05/10 02:43:00;;;;;;;2.20;1.33;;;20.80;99.90;;;;;;5096436;28;20762;-69
2021/05/10 02:45:26;;;;;;;2.80;1.43;;;20.80;99.90;;;;;;5096413;28;20434;-69
2021/05/10 02:47:51;;;;;;;12.20;7.90;;;20.80;99.90;;;;;;5095071;28;20198;-69
2021/05/10 02:50:19;;;;;;;4.23;1.43;;;20.80;99.90;;;;;;5097395;28;20165;-69
2021/05/10 02:52:47;;;;;;;4.43;1.43;;;20.80;99.90;;;;;;5096497;28;20169;-69
2021/05/10 02:55:12;;;;;;;2.30;1.37;;;20.80;99.90;;;;;;5096132;28;20514;-69
2021/05/10 02:57:38;;;;;;;2.77;1.20;;;20.80;99.90;;;;;;5096136;28;20494;-69
2021/05/10 03:00:08;;;;;;;1.73;1.30;;;20.80;99.90;;;;;;5096400;28;20167;-69
2021/05/10 03:02:34;;;;;;;2.17;1.30;;;20.80;99.90;;;;;;5096399;28;20166;-69
2021/05/10 03:05:00;;;;;;;2.07;1.20;;;20.80;99.90;;;;;;5096510;28;20478;-69
2021/05/10 03:07:26;;;;;;;3.87;1.53;;;20.70;99.90;;;;;;5095818;28;20279;-69
2021/05/10 03:09:51;;;;;;;4.03;1.33;;;20.70;99.90;;;;;;5095906;28;20824;-69
2021/05/10 03:12:17;;;;;;;3.83;1.30;;;20.60;99.90;;;;;;5095938;28;20256;-69
2021/05/10 03:14:43;;;;;;;6.13;2.37;;;20.50;99.90;;;;;;5095762;28;20185;-69
2021/05/10 03:17:08;;;;;;;4.63;1.70;;;20.50;99.90;;;;;;5095824;28;20528;-69
2021/05/10 03:19:34;;;;;;;3.63;1.80;;;20.40;99.90;;;;;;5095844;28;20179;-69
2021/05/10 03:22:00;;;;;;;2.57;1.70;;;20.40;99.90;;;;;;5095696;28;20176;-69
2021/05/10 03:24:25;;;;;;;2.30;1.10;;;20.20;99.90;;;;;;5095621;28;20187;-69
2021/05/10 03:26:51;;;;;;;2.93;1.10;;;20.30;99.90;;;;;;5095812;28;20199;-69
2021/05/10 03:29:16;;;;;;;4.40;1.20;;;20.40;99.90;;;;;;5095669;28;20181;-69
2021/05/10 03:31:42;;;;;;;1.97;1.30;;;20.50;99.90;;;;;;5095720;28;20174;-69
2021/05/10 03:34:07;;;;;;;6.63;2.10;;;20.50;99.90;;;;;;5095184;28;20320;-69
2021/05/10 03:36:33;;;;;;;5.10;1.70;;;20.50;99.90;;;;;;5095291;28;20179;-69
2021/05/10 03:39:03;;;;;;;1.90;1.20;;;20.50;99.90;;;;;;5095626;28;20648;-69
2021/05/10 03:41:28;;;;;;;2.57;1.80;;;20.50;99.90;;;;;;5095405;28;20532;-69
2021/05/10 03:43:56;;;;;;;2.90;1.53;;;20.40;99.90;;;;;;5095289;28;20512;-69
2021/05/10 03:46:22;;;;;;;2.23;1.20;;;20.40;99.90;;;;;;5095209;28;20228;-69
2021/05/10 03:48:47;;;;;;;2.93;1.50;;;20.40;99.90;;;;;;5095101;28;20448;-69
2021/05/10 03:51:13;;;;;;;1.77;1.20;;;20.40;99.90;;;;;;5095120;28;20259;-69
2021/05/10 03:53:38;;;;;;;3.80;1.53;;;20.40;99.90;;;;;;5095259;28;20249;-69
2021/05/10 03:56:04;;;;;;;4.57;1.60;;;20.40;99.90;;;;;;5095147;28;20670;-69
2021/05/10 03:58:30;;;;;;;2.10;1.40;;;20.50;99.90;;;;;;5095322;28;20175;-69
2021/05/10 04:00:55;;;;;;;6.40;2.27;;;20.50;99.90;;;;;;5094935;28;20402;-69
2021/05/10 04:03:23;;;;;;;5.67;1.40;;;20.60;99.90;;;;;;5094902;28;20650;-69
2021/05/10 04:13:47;;;;;;;3.83;1.37;;;20.60;99.90;;;;;;5094917;28;20386;-69
2021/05/10 04:16:13;;;;;;;3.93;1.47;;;20.60;99.90;;;;;;5094878;28;20406;-69
2021/05/10 04:18:38;;;;;;;5.20;1.20;;;20.70;99.90;;;;;;5094556;28;20925;-69
2021/05/10 04:21:04;;;;;;;5.53;1.37;;;20.80;99.90;;;;;;5094517;28;20169;-69
2021/05/10 04:23:29;;;;;;;3.27;1.40;;;20.70;99.90;;;;;;5094108;28;20174;-69
2021/05/10 04:25:55;;;;;;;5.07;1.37;;;20.70;99.90;;;;;;5093902;28;20169;-68
2021/05/10 04:28:23;;;;;;;3.97;1.40;;;20.80;99.90;;;;;;5094375;28;20646;-69
2021/05/10 04:30:50;;;;;;;4.40;1.30;;;20.90;99.90;;;;;;5092900;28;20166;-69
2021/05/10 04:33:24;;;;;;;3.67;1.47;;;20.90;99.90;;;;;;5094359;28;20442;-69
2021/05/10 04:35:49;;;;;;;5.20;1.20;;;20.90;99.90;;;;;;5093977;28;20423;-69
2021/05/10 04:38:15;;;;;;;3.10;1.33;;;20.90;99.90;;;;;;5093937;28;20901;-68
2021/05/10 04:40:40;;;;;;;6.70;1.20;;;20.80;99.90;;;;;;5093879;28;20166;-69
2021/05/10 04:43:06;;;;;;;3.77;2.40;;;20.80;99.90;;;;;;5093751;28;20176;-68
2021/05/10 04:45:32;;;;;;;15.97;1.83;;;20.80;99.90;;;;;;5093369;28;20193;-69
2021/05/10 04:47:58;;;;;;;19.20;2.30;;;20.80;99.90;;;;;;5093529;28;20790;-69
2021/05/10 04:50:23;;;;;;;9.87;2.03;;;20.70;99.90;;;;;;5093864;28;20165;-69
2021/05/10 04:52:49;;;;;;;5.60;1.60;;;20.70;99.90;;;;;;5093916;28;20528;-69
2021/05/10 04:55:15;;;;;;;6.13;2.00;;;20.60;99.90;;;;;;5093629;28;20193;-69
2021/05/10 04:57:41;;;;;;;7.77;2.33;;;20.60;99.90;;;;;;5093708;28;20414;-69
2021/05/10 05:00:10;;;;;;;2.37;1.43;;;20.50;99.90;;;;;;5094013;28;20655;-69
2021/05/10 05:02:36;;;;;;;6.40;1.70;;;20.50;99.90;;;;;;5093681;28;20225;-69
2021/05/10 05:05:02;;;;;;;7.07;2.77;;;20.50;99.90;;;;;;5093344;28;20429;-68
2021/05/10 05:07:28;;;;;;;2.30;1.37;;;20.30;99.90;;;;;;5093378;28;20456;-69
2021/05/10 05:09:54;;;;;;;2.47;1.20;;;20.20;99.90;;;;;;5092643;28;20378;-69
2021/05/10 05:12:19;;;;;;;2.90;1.10;;;20.20;99.90;;;;;;5092742;28;20259;-69
2021/05/10 05:14:45;;;;;;;3.67;1.40;;;20.00;99.90;;;;;;5092602;28;20725;-69
2021/05/10 05:17:10;;;;;;;1.70;1.27;;;20.10;99.90;;;;;;5092545;28;20698;-69
2021/05/10 05:19:36;;;;;;;16.20;1.87;;;20.10;99.90;;;;;;5092765;28;20182;-69
2021/05/10 05:22:02;;;;;;;3.20;1.40;;;20.10;99.90;;;;;;5092542;28;20172;-69
2021/05/10 05:24:28;;;;;;;4.20;1.43;;;20.10;99.90;;;;;;5092347;28;20187;-69
2021/05/10 05:26:53;;;;;;;3.83;1.60;;;20.00;99.90;;;;;;5092632;28;20445;-69
2021/05/10 05:29:22;;;;;;;10.70;2.33;;;20.00;99.90;;;;;;5093134;28;20192;-69
2021/05/10 05:31:52;;;;;;;2.67;1.83;;;20.00;99.90;;;;;;5092445;28;20171;-69
2021/05/10 05:34:17;;;;;;;3.83;1.60;;;19.90;99.90;;;;;;5092059;28;20418;-69
2021/05/10 05:36:43;;;;;;;6.50;2.30;;;19.80;99.90;;;;;;5092141;28;20409;-69
2021/05/10 05:39:09;;;;;;;2.60;1.63;;;19.80;99.90;;;;;;5092110;28;20170;-69
2021/05/10 05:41:35;;;;;;;8.73;1.60;;;19.80;99.90;;;;;;5092225;28;20517;-69
2021/05/10 05:44:03;;;;;;;8.97;2.50;;;19.70;99.90;;;;;;5091875;28;20263;-69
2021/05/10 05:46:30;;;;;;;3.27;2.20;;;19.70;99.90;;;;;;5090158;28;20421;-69
2021/05/10 05:48:56;;;;;;;3.80;2.00;;;19.70;99.90;;;;;;5092141;28;20419;-69
2021/05/10 05:51:23;;;;;;;8.20;2.53;;;19.70;99.90;;;;;;5090577;28;20427;-69
2021/05/10 05:53:52;;;;;;;5.50;2.00;;;19.60;99.90;;;;;;5091920;28;20438;-69
2021/05/10 05:56:18;;;;;;;1.70;1.37;;;19.60;99.90;;;;;;5090861;28;20906;-69
2021/05/10 05:58:43;;;;;;;3.43;1.23;;;19.60;99.90;;;;;;5091572;28;20459;-69
2021/05/10 06:01:09;;;;;;;2.00;1.20;;;19.60;99.90;;;;;;5091654;28;20716;-69
2021/05/10 06:03:35;;;;;;;4.53;1.80;;;19.50;99.90;;;;;;5091524;28;20551;-69
2021/05/10 06:06:00;;;;;;;4.63;1.20;;;19.50;99.90;;;;;;5091629;28;20169;-69
2021/05/10 06:08:26;;;;;;;2.70;1.90;;;19.50;99.90;;;;;;5070604;28;617523;-70
2021/05/10 06:10:51;;;;;;;4.40;1.13;;;19.50;99.90;;;;;;5092517;28;20608;-68
2021/05/10 06:13:17;;;;;;;8.43;1.53;;;19.40;99.90;;;;;;5092455;28;20249;-69
2021/05/10 06:15:42;;;;;;;4.60;2.30;;;19.40;99.90;;;;;;5092820;28;20276;-69
2021/05/10 06:18:08;;;;;;;4.27;2.07;;;19.40;99.90;;;;;;5092459;28;20250;-69
2021/05/10 06:20:34;;;;;;;4.87;2.30;;;19.30;99.90;;;;;;5092427;28;20174;-69
2021/05/10 06:23:02;;;;;;;3.10;1.77;;;19.30;99.90;;;;;;5092495;28;20402;-69
2021/05/10 06:25:28;;;;;;;4.03;1.50;;;19.30;99.90;;;;;;5092594;28;20214;-69
2021/05/10 06:27:54;;;;;;;3.40;2.47;;;19.40;99.90;;;;;;5090894;28;20496;-69
2021/05/10 06:30:20;;;;;;;4.33;1.30;;;19.30;99.90;;;;;;5092607;28;20441;-69
2021/05/10 06:32:48;;;;;;;6.97;2.27;;;19.30;99.90;;;;;;5091967;28;20255;-69
2021/05/10 06:35:13;;;;;;;3.70;1.70;;;19.30;99.90;;;;;;5091948;28;20244;-69
2021/05/10 06:37:39;;;;;;;3.60;1.60;;;19.30;99.90;;;;;;5091959;28;20404;-69
2021/05/10 06:40:06;;;;;;;5.70;1.60;;;19.30;99.90;;;;;;5092221;28;20175;-69
2021/05/10 06:42:31;;;;;;;4.30;2.47;;;19.40;99.90;;;;;;5091882;28;20203;-69
2021/05/10 06:44:57;;;;;;;3.17;1.83;;;19.40;99.90;;;;;;5091995;28;20935;-68
2021/05/10 06:47:23;;;;;;;5.90;2.13;;;19.40;99.90;;;;;;5090635;28;20289;-68
2021/05/10 06:49:49;;;;;;;31.77;5.37;;;19.40;99.90;;;;;;5092184;28;20179;-68
2021/05/10 06:52:14;;;;;;;64.33;7.90;;;19.50;99.90;;;;;;5091824;28;20397;-69
2021/05/10 06:54:40;;;;;;;39.97;4.93;;;19.50;99.90;;;;;;5091605;28;20226;-69
2021/05/10 06:57:06;;;;;;;7.60;2.40;;;19.60;99.90;;;;;;5092009;28;20264;-69
2021/05/10 06:59:32;;;;;;;24.83;2.60;;;19.70;99.90;;;;;;5091557;28;20174;-69
2021/05/10 07:01:57;;;;;;;13.73;2.47;;;19.70;99.90;;;;;;5092197;28;20399;-68
2021/05/10 07:04:23;;;;;;;6.93;2.47;;;19.80;99.90;;;;;;5091583;28;20228;-69
2021/05/10 07:06:48;;;;;;;10.97;2.13;;;20.00;99.90;;;;;;5091570;28;20167;-70
2021/05/10 07:09:14;;;;;;;4.73;2.17;;;20.10;99.90;;;;;;5093751;28;20195;-70
2021/05/10 07:11:39;;;;;;;3.87;1.40;;;20.10;99.90;;;;;;5095445;28;20182;-69
2021/05/10 07:14:05;;;;;;;3.60;1.30;;;20.20;99.90;;;;;;5095578;28;20713;-68
2021/05/10 07:16:31;;;;;;;26.87;3.40;;;20.20;99.90;;;;;;5095569;28;20177;-69
2021/05/10 07:18:57;;;;;;;24.37;3.77;;;20.10;99.90;;;;;;5094985;28;20169;-68
2021/05/10 07:21:23;;;;;;;7.07;2.70;;;20.20;99.90;;;;;;5095083;28;20473;-68
2021/05/10 07:23:50;;;;;;;9.30;1.70;;;20.50;99.90;;;;;;5095080;28;20198;-67
2021/05/10 07:26:16;;;;;;;3.47;1.70;;;20.50;99.90;;;;;;5095034;28;20404;-68
2021/05/10 07:28:42;;;;;;;4.27;1.37;;;20.70;99.90;;;;;;5094763;28;20525;-68
2021/05/10 07:31:07;;;;;;;12.73;2.30;;;20.80;99.90;;;;;;5094714;28;20408;-69
2021/05/10 07:33:33;;;;;;;3.40;1.50;;;20.80;99.90;;;;;;5094592;28;20193;-69
2021/05/10 07:35:58;;;;;;;8.37;2.00;;;20.90;99.90;;;;;;5094562;28;20172;-69
2021/05/10 07:38:24;;;;;;;3.40;1.90;;;20.90;99.90;;;;;;5095025;28;20209;-69
2021/05/10 07:40:49;;;;;;;1.60;1.10;;;20.70;99.90;;;;;;5094763;28;20169;-69
2021/05/10 07:43:15;;;;;;;28.53;3.33;;;20.70;99.90;;;;;;5094248;28;20178;-69
2021/05/10 07:45:40;;;;;;;7.43;1.90;;;20.70;99.90;;;;;;5094967;28;20234;-70
2021/05/10 07:48:06;;;;;;;4.03;1.50;;;20.60;99.90;;;;;;5094887;28;20505;-69
2021/05/10 07:50:32;;;;;;;3.23;1.10;;;20.60;99.90;;;;;;5094445;28;20204;-69
2021/05/10 07:52:58;;;;;;;6.97;1.40;;;20.40;99.90;;;;;;5094837;28;20171;-69
2021/05/10 07:55:24;;;;;;;3.67;1.00;;;20.20;99.90;;;;;;5094770;28;20445;-69
2021/05/10 07:57:54;;;;;;;2.90;1.30;;;20.20;99.90;;;;;;5094741;28;20170;-69
2021/05/10 08:00:27;;;;;;;2.90;1.33;;;20.10;99.90;;;;;;5093065;28;20475;-69
2021/05/10 08:02:54;;;;;;;29.20;2.47;;;20.20;99.90;;;;;;5094552;28;20478;-69
2021/05/10 08:05:20;;;;;;;3.20;1.37;;;20.00;99.90;;;;;;5094100;28;20505;-69
2021/05/10 08:07:45;;;;;;;3.47;1.43;;;20.00;99.90;;;;;;5094100;28;20450;-68
2021/05/10 08:10:11;;;;;;;8.13;2.20;;;20.00;99.90;;;;;;5093851;28;20502;-68
2021/05/10 08:12:37;;;;;;;7.60;1.50;;;20.00;99.90;;;;;;5093562;28;20243;-67
2021/05/10 08:15:04;;;;;;;4.67;1.70;;;20.00;99.90;;;;;;5093616;28;20573;-68
2021/05/10 08:17:32;;;;;;;2.53;1.20;;;20.10;99.90;;;;;;5093794;28;20402;-68
2021/05/10 08:19:57;;;;;;;4.50;1.70;;;20.10;99.90;;;;;;5092659;28;20409;-69
2021/05/10 08:22:23;;;;;;;3.43;1.40;;;20.20;99.90;;;;;;5093720;28;20414;-70
2021/05/10 08:24:48;;;;;;;4.87;1.20;;;20.10;99.90;;;;;;5093502;28;20376;-70
2021/05/10 08:27:14;;;;;;;9.60;2.03;;;20.20;99.90;;;;;;5094248;28;20197;-70
2021/05/10 08:29:40;;;;;;;41.00;5.67;;;20.20;99.90;;;;;;5093343;28;20182;-70
2021/05/10 08:32:05;;;;;;;5.33;1.07;;;20.20;99.90;;;;;;5093605;28;20172;-70
2021/05/10 08:34:31;;;;;;;1.47;0.90;;;20.20;99.90;;;;;;5093793;28;20577;-69
2021/05/10 08:36:57;;;;;;;23.70;2.40;;;20.10;99.90;;;;;;5093230;28;20641;-69
2021/05/10 08:39:23;;;;;;;5.83;1.10;;;20.30;99.90;;;;;;5093389;28;20611;-69
2021/05/10 08:41:49;;;;;;;3.97;1.23;;;20.30;99.90;;;;;;5093425;28;20449;-70
2021/05/10 08:44:15;;;;;;;5.63;1.40;;;20.30;99.90;;;;;;5093473;28;20447;-70
2021/05/10 08:46:41;;;;;;;4.03;1.20;;;20.30;99.90;;;;;;5093226;28;20188;-70
2021/05/10 08:49:08;;;;;;;9.20;1.73;;;20.30;99.90;;;;;;5093764;28;20254;-70
2021/05/10 08:51:35;;;;;;;11.60;2.20;;;20.10;99.90;;;;;;5093527;28;20412;-70
2021/05/10 08:54:01;;;;;;;2.60;1.10;;;20.10;99.90;;;;;;5093194;28;20544;-70
2021/05/10 08:56:27;;;;;;;3.60;0.97;;;20.00;99.90;;;;;;5093806;28;20411;-71
2021/05/10 08:58:53;;;;;;;10.67;3.00;;;19.80;99.90;;;;;;5091986;28;20427;-70
2021/05/10 09:01:22;;;;;;;1.77;0.90;;;19.70;99.90;;;;;;5093106;28;20865;-70
2021/05/10 09:03:50;;;;;;;4.40;0.90;;;19.60;99.90;;;;;;5093000;28;20226;-69
2021/05/10 09:06:29;;;;;;;2.90;0.77;;;19.50;99.90;;;;;;5093097;28;20418;-70
2021/05/10 09:09:09;;;;;;;3.53;0.97;;;19.50;99.90;;;;;;5093102;28;20862;-70
2021/05/10 09:11:52;;;;;;;3.53;0.90;;;19.50;99.90;;;;;;5093208;28;20389;-69
2021/05/10 09:14:34;;;;;;;3.03;1.00;;;19.50;99.90;;;;;;5093158;28;20418;-70
2021/05/10 09:16:59;;;;;;;2.60;0.80;;;19.40;99.90;;;;;;5093395;28;20480;-70
2021/05/10 09:19:56;;;;;;;5.57;1.10;;;19.40;99.90;;;;;;5092899;28;20502;-71
2021/05/10 09:22:22;;;;;;;7.30;1.03;;;19.30;99.90;;;;;;5093313;28;20152;-71
2021/05/10 09:24:53;;;;;;;14.03;2.40;;;19.30;99.90;;;;;;5092963;28;20794;-71
2021/05/10 09:27:30;;;;;;;2.70;1.20;;;19.30;99.90;;;;;;5092891;28;20442;-71
2021/05/10 09:30:14;;;;;;;1.73;0.80;;;19.40;99.90;;;;;;5092941;28;20439;-70
2021/05/10 09:32:45;;;;;;;9.53;1.80;;;19.30;99.90;;;;;;5093030;28;20412;-71
2021/05/10 09:35:24;;;;;;;2.17;0.70;;;19.40;99.90;;;;;;5092314;28;20863;-71
2021/05/10 09:38:08;;;;;;;3.00;0.63;;;19.40;99.90;;;;;;5089271;28;20469;-69
2021/05/10 09:40:46;;;;;;;3.33;1.20;;;19.40;99.90;;;;;;5090597;28;20432;-70
2021/05/10 09:43:13;;;;;;;4.20;0.90;;;19.60;99.90;;;;;;5090003;28;20462;-70
2021/05/10 09:45:43;;;;;;;3.73;1.10;;;19.60;99.90;;;;;;5088964;28;20426;-69
2021/05/10 09:48:10;;;;;;;4.80;0.73;;;19.40;99.90;;;;;;5090028;28;20521;-70
2021/05/10 09:50:41;;;;;;;8.60;4.13;;;19.40;99.90;;;;;;5091040;28;20460;-70
2021/05/10 09:53:08;;;;;;;14.23;2.00;;;19.60;99.90;;;;;;5093095;28;20392;-69
2021/05/10 09:55:53;;;;;;;2.43;0.63;;;19.60;99.90;;;;;;5092844;28;20429;-70
2021/05/10 09:58:21;;;;;;;7.83;1.20;;;19.50;99.90;;;;;;5092955;28;20387;-70
2021/05/10 10:00:53;;;;;;;3.37;1.10;;;19.70;99.90;;;;;;5092637;28;20404;-69
2021/05/10 10:03:34;;;;;;;2.17;0.80;;;19.50;99.90;;;;;;5092669;28;20392;-70
2021/05/10 10:06:03;;;;;;;6.00;1.30;;;19.50;99.90;;;;;;5092599;28;20411;-70
2021/05/10 10:08:29;;;;;;;1.53;1.00;;;19.50;99.90;;;;;;5092235;28;20457;-70
2021/05/10 10:10:56;;;;;;;7.33;0.90;;;19.40;99.90;;;;;;5092850;28;20410;-72
2021/05/10 10:13:21;;;;;;;5.33;1.97;;;19.40;99.90;;;;;;5093174;28;20171;-64
2021/05/10 10:15:48;;;;;;;3.00;0.70;;;19.30;99.90;;;;;;5093570;28;20818;-63
2021/05/10 10:18:21;;;;;;;4.07;2.70;;;19.30;99.90;;;;;;5092941;28;20274;-56
2021/05/10 10:20:48;;;;;;;1.43;1.13;;;19.10;99.90;;;;;;5092303;28;20394;-63
2021/05/10 10:23:16;;;;;;;2.63;0.90;;;19.00;99.90;;;;;;5092483;28;20406;-62
2021/05/10 10:25:43;;;;;;;3.40;0.70;;;19.10;99.90;;;;;;5092092;28;20523;-59
2021/05/10 10:28:09;;;;;;;4.00;0.70;;;19.10;99.90;;;;;;5092467;28;20477;-60
2021/05/10 10:30:41;;;;;;;8.33;1.30;;;19.10;99.90;;;;;;5092821;28;20394;-61
2021/05/10 10:33:18;;;;;;;4.23;0.90;;;19.10;99.90;;;;;;5092410;28;20168;-62
2021/05/10 10:35:44;;;;;;;3.13;0.90;;;19.30;99.90;;;;;;5092054;28;20462;-62
2021/05/10 10:38:12;;;;;;;1.30;0.70;;;19.30;99.90;;;;;;5092007;28;20432;-59
2021/05/10 10:40:38;;;;;;;2.07;1.30;;;19.40;99.90;;;;;;5092199;28;20410;-57
2021/05/10 10:43:36;;;;;;;4.70;1.27;;;19.50;99.90;;;;;;5092523;28;20521;-55
2021/05/10 10:46:21;;;;;;;41.50;6.33;;;19.50;99.90;;;;;;5050880;28;20467;-59
2021/05/10 10:48:49;;;;;;;82.93;9.47;;;19.50;99.90;;;;;;5096069;28;20441;-59
2021/05/10 10:51:15;;;;;;;8.30;1.77;;;19.40;99.90;;;;;;5095459;28;20409;-58
2021/05/10 10:53:59;;;;;;;16.57;2.27;;;19.60;99.90;;;;;;5095862;28;20406;-56
2021/05/10 10:56:48;;;;;;;6.60;1.50;;;19.80;99.90;;;;;;5095802;28;20402;-59
2021/05/10 10:59:22;;;;;;;12.87;1.00;;;20.30;99.90;;;;;;5095654;28;20497;-61
2021/05/10 11:01:47;;;;;;;12.03;2.77;;;20.10;99.90;;;;;;5095558;28;20445;-56
2021/05/10 11:04:23;;;;;;;86.63;11.80;;;20.10;99.90;;;;;;5095485;28;20937;-58
2021/05/10 11:06:50;;;;;;;7.50;1.23;;;20.00;99.90;;;;;;5095748;28;20178;-62
2021/05/10 11:09:15;;;;;;;15.63;1.10;;;20.00;99.90;;;;;;5095195;28;20444;-56
2021/05/10 11:11:41;;;;;;;4.40;1.33;;;20.10;99.90;;;;;;5095661;28;20406;-58
2021/05/10 11:14:12;;;;;;;2.50;1.17;;;20.00;99.90;;;;;;5095782;28;20608;-56
2021/05/10 11:16:50;;;;;;;4.03;1.23;;;20.20;99.90;;;;;;5094424;28;20258;-59
2021/05/10 11:19:36;;;;;;;1.40;1.00;;;20.30;99.90;;;;;;5095871;28;20384;-57
2021/05/10 11:22:23;;;;;;;4.60;1.00;;;20.30;99.90;;;;;;5095497;28;20933;-62
2021/05/10 11:24:49;;;;;;;7.27;0.90;;;20.20;99.90;;;;;;5080421;28;20446;-56
2021/05/10 11:27:26;;;;;;;4.30;1.63;;;20.00;99.90;;;;;;5094817;28;20449;-61
2021/05/10 11:29:51;;;;;;;6.77;1.50;;;20.00;99.90;;;;;;5094972;28;20195;-58
2021/05/10 11:32:21;;;;;;;3.03;1.10;;;20.00;99.90;;;;;;5094936;28;20494;-57
2021/05/10 11:34:48;;;;;;;8.90;1.93;;;20.30;99.90;;;;;;5094716;28;20191;-58
2021/05/10 11:37:21;;;;;;;7.27;1.40;;;20.20;99.90;;;;;;5095312;28;20744;-60
2021/05/10 11:39:47;;;;;;;32.87;4.47;;;20.10;99.90;;;;;;5095274;28;20761;-60
2021/05/10 11:42:13;;;;;;;10.20;1.40;;;20.10;99.90;;;;;;5095041;28;20472;-59
2021/05/10 11:44:44;;;;;;;10.87;1.70;;;20.00;99.90;;;;;;5095516;28;20797;-58
2021/05/10 11:47:10;;;;;;;2.33;1.03;;;20.30;99.90;;;;;;5094468;28;20453;-59
2021/05/10 11:49:41;;;;;;;8.77;1.40;;;20.40;99.90;;;;;;5094418;28;20405;-59
2021/05/10 11:52:36;;;;;;;21.27;2.80;;;20.20;99.90;;;;;;5095018;28;20459;-59
2021/05/10 11:55:03;;;;;;;1.40;1.07;;;19.80;99.90;;;;;;5077367;28;20852;-60
2021/05/10 11:57:31;;;;;;;10.73;1.63;;;19.80;99.90;;;;;;5094494;28;20439;-57
2021/05/10 12:00:03;;;;;;;2.87;2.07;;;19.90;99.90;;;;;;5094911;28;20455;-61
2021/05/10 12:02:32;;;;;;;4.70;1.40;;;19.90;99.90;;;;;;5094464;28;20391;-59
2021/05/10 12:05:09;;;;;;;4.57;1.40;;;19.70;99.90;;;;;;5094212;28;20430;-56
2021/05/10 12:07:37;;;;;;;5.67;1.97;;;20.00;99.90;;;;;;5094321;28;20459;-60
2021/05/10 12:10:09;;;;;;;5.27;1.77;;;20.30;99.90;;;;;;5094562;28;20439;-62
2021/05/10 12:12:46;;;;;;;3.30;1.00;;;20.10;99.90;;;;;;5094352;28;20930;-60
2021/05/10 12:15:27;;;;;;;12.63;1.43;;;20.30;99.90;;;;;;5094293;28;20428;-61
2021/05/10 12:17:55;;;;;;;5.13;1.77;;;20.20;99.90;;;;;;5094259;28;20391;-57
2021/05/10 12:20:22;;;;;;;2.63;1.13;;;20.30;99.90;;;;;;5094066;28;20582;-59
2021/05/10 12:23:09;;;;;;;8.83;1.57;;;20.40;99.90;;;;;;5094906;28;20410;-59
2021/05/10 12:25:38;;;;;;;18.90;2.40;;;20.30;99.90;;;;;;5094833;28;20435;-61
2021/05/10 12:28:13;;;;;;;6.10;1.37;;;19.80;99.90;;;;;;5094677;28;20452;-61
2021/05/10 12:30:45;;;;;;;5.50;1.00;;;19.80;99.90;;;;;;5095034;28;20409;-57
2021/05/10 12:33:17;;;;;;;9.43;1.90;;;19.90;99.90;;;;;;5093887;28;20498;-57
2021/05/10 12:35:48;;;;;;;5.17;1.50;;;20.10;99.90;;;;;;5092651;28;20489;-56
2021/05/10 12:38:37;;;;;;;2.07;1.00;;;20.00;99.90;;;;;;5093577;28;20778;-61
2021/05/10 12:41:05;;;;;;;5.87;1.90;;;20.00;99.90;;;;;;5093618;28;20478;-54
2021/05/10 12:43:33;;;;;;;259.43;32.73;;;19.90;99.90;;;;;;5093720;28;20413;-58
2021/05/10 12:46:00;;;;;;;5.90;1.47;;;19.80;99.90;;;;;;5093889;28;20419;-59
2021/05/10 12:48:35;;;;;;;20.43;2.80;;;19.90;99.90;;;;;;5093854;28;20510;-59
2021/05/10 12:51:03;;;;;;;10.57;1.53;;;19.90;99.90;;;;;;5093529;28;20390;-56
2021/05/10 12:53:39;;;;;;;1.93;0.90;;;20.10;99.90;;;;;;5093414;28;20488;-61
2021/05/10 12:56:11;;;;;;;4.80;1.10;;;20.00;99.90;;;;;;5093089;28;20409;-58
2021/05/10 12:58:38;;;;;;;8.50;2.27;;;20.20;99.90;;;;;;5092702;28;20401;-69